Time;durP1;ratioP1;P1;durP2;ratioP2;P2;SDS_P1;SDS_P2;PMS_P1;PMS_P2;Temp;Humidity;BMP_temperature;BMP_pressure;BME280_temperature;BME280_humidity;BME280_pressure;Samples;Min_cycle;Max_cycle;Signal;HPM_P1;HPM_P2
2024/01/25 00:01:30;;;;;;;31.38;6.40;;;;;;;9.37;83.45;102541.63;3605888;39;20062;-69
2024/01/25 00:03:56;;;;;;;33.25;6.50;;;;;;;9.49;83.58;102577.03;3607420;39;20067;-69
2024/01/25 00:06:21;;;;;;;32.60;6.85;;;;;;;9.46;82.85;102586.97;3612857;39;20443;-69
2024/01/25 00:08:47;;;;;;;32.40;6.85;;;;;;;9.41;83.06;102567.44;3606775;39;20161;-69
2024/01/25 00:11:13;;;;;;;29.83;6.05;;;;;;;9.40;83.10;102571.03;3607391;39;20619;-68
2024/01/25 00:13:39;;;;;;;30.83;7.05;;;;;;;9.23;84.00;102544.72;3607260;39;20070;-69
2024/01/25 00:16:05;;;;;;;37.28;6.43;;;;;;;9.28;84.14;102566.91;3607320;39;20042;-68
2024/01/25 00:18:31;;;;;;;30.65;5.85;;;;;;;9.24;83.75;102567.91;3605932;39;20059;-69
2024/01/25 00:20:56;;;;;;;32.35;7.15;;;;;;;9.18;84.30;102560.03;3605484;39;20061;-69
2024/01/25 00:23:22;;;;;;;44.30;9.75;;;;;;;9.14;84.90;102563.75;3608021;39;20044;-68
2024/01/25 00:25:47;;;;;;;33.65;7.38;;;;;;;9.07;84.63;102571.09;3609020;39;20415;-68
2024/01/25 00:28:13;;;;;;;35.85;7.50;;;;;;;9.04;85.11;102565.81;3607576;39;20388;-68
2024/01/25 00:30:40;;;;;;;35.38;6.18;;;;;;;9.01;85.15;102579.31;3608983;39;20340;-68
2024/01/25 00:33:05;;;;;;;44.00;8.23;;;;;;;8.97;86.02;102575.78;3606795;39;20359;-69
2024/01/25 00:35:32;;;;;;;32.60;7.35;;;;;;;8.94;85.84;102566.94;3606009;39;20047;-68
2024/01/25 00:37:58;;;;;;;41.40;8.13;;;;;;;8.91;86.70;102562.56;3607524;39;20062;-68
2024/01/25 00:40:24;;;;;;;35.40;6.07;;;;;;;8.45;86.59;102504.81;3609750;39;20059;-68
2024/01/25 00:42:52;;;;;;;37.35;7.25;;;;;;;8.82;86.62;102558.34;3607460;39;20055;-68
2024/01/25 00:45:19;;;;;;;32.90;6.28;;;;;;;8.63;86.90;102523.97;3606177;39;20381;-68
2024/01/25 00:47:46;;;;;;;33.67;6.60;;;;;;;8.78;86.63;102564.69;3606964;39;20160;-68
2024/01/25 00:50:12;;;;;;;36.90;6.88;;;;;;;8.74;86.84;102567.50;3608517;39;20054;-68
2024/01/25 00:52:39;;;;;;;33.83;6.88;;;;;;;8.71;87.12;102575.63;3610321;39;20455;-68
2024/01/25 00:55:05;;;;;;;43.83;7.95;;;;;;;8.69;88.18;102569.41;3610789;39;20059;-68
2024/01/25 00:57:32;;;;;;;36.63;6.93;;;;;;;8.67;87.50;102580.19;3610490;39;20062;-68
2024/01/25 01:00:00;;;;;;;37.00;7.30;;;;;;;8.63;87.97;102578.50;3608491;39;20047;-68
2024/01/25 01:02:30;;;;;;;33.53;7.18;;;;;;;8.60;87.28;102578.59;3609762;39;20322;-68
2024/01/25 01:04:58;;;;;;;34.05;6.43;;;;;;;8.57;88.39;102578.66;3607936;39;20384;-68
2024/01/25 01:07:24;;;;;;;38.05;7.30;;;;;;;8.43;88.23;102560.22;3609265;39;20062;-68
2024/01/25 01:09:49;;;;;;;45.42;7.35;;;;;;;8.33;88.00;102558.66;3609815;39;20091;-68
2024/01/25 01:12:16;;;;;;;36.72;7.00;;;;;;;8.45;89.11;102581.66;3607940;39;20108;-68
2024/01/25 01:14:42;;;;;;;38.75;7.28;;;;;;;8.41;88.56;102585.31;3609243;39;20067;-68
2024/01/25 01:17:08;;;;;;;33.95;6.18;;;;;;;8.27;88.97;102572.22;3610544;39;20051;-68
2024/01/25 01:19:34;;;;;;;40.03;7.18;;;;;;;8.29;88.84;102579.31;3608059;39;20123;-68
2024/01/25 01:21:59;;;;;;;35.15;6.65;;;;;;;8.14;89.33;102559.09;3610445;39;20073;-68
2024/01/25 01:24:25;;;;;;;44.00;6.78;;;;;;;8.25;89.36;102592.81;3607209;39;20058;-68
2024/01/25 01:26:50;;;;;;;34.35;6.93;;;;;;;8.27;89.57;102599.00;3608692;39;20058;-68
2024/01/25 01:29:17;;;;;;;35.97;6.72;;;;;;;8.23;90.01;102595.53;3610683;39;20114;-68
2024/01/25 01:31:43;;;;;;;38.67;7.72;;;;;;;8.23;89.36;102608.91;3616129;39;20361;-68
2024/01/25 01:34:08;;;;;;;37.88;8.02;;;;;;;8.18;89.00;102596.53;3611099;39;20058;-68
2024/01/25 01:36:34;;;;;;;39.50;7.10;;;;;;;8.13;90.01;102589.50;3606726;39;20434;-68
2024/01/25 01:39:00;;;;;;;39.53;7.65;;;;;;;7.93;90.15;102566.75;3609255;39;20460;-68
2024/01/25 01:41:25;;;;;;;36.85;6.72;;;;;;;8.07;90.86;102605.72;3608396;39;20396;-68
2024/01/25 01:43:55;;;;;;;36.17;6.70;;;;;;;7.86;90.55;102574.06;3617094;39;20073;-67
2024/01/25 01:46:36;;;;;;;45.42;8.43;;;;;;;7.97;90.77;102598.81;3611076;39;20051;-68
2024/01/25 01:49:04;;;;;;;35.53;7.60;;;;;;;7.86;91.52;102590.13;3609448;39;20089;-67
2024/01/25 01:51:31;;;;;;;42.95;7.82;;;;;;;7.93;90.91;102613.19;3609393;39;20123;-67
2024/01/25 01:54:00;;;;;;;32.67;7.07;;;;;;;7.91;92.09;102610.53;3611579;39;20043;-68
2024/01/25 01:56:31;;;;;;;43.28;7.53;;;;;;;7.88;91.60;102615.06;3618257;39;20043;-68
2024/01/25 01:59:08;;;;;;;41.17;7.80;;;;;;;7.83;91.98;102633.03;3613232;39;20334;-68
2024/01/25 02:01:34;;;;;;;44.75;7.50;;;;;;;7.80;92.48;102636.66;3609882;39;20059;-67
2024/01/25 02:03:59;;;;;;;37.53;7.53;;;;;;;7.78;92.03;102634.94;3609259;39;20433;-68
2024/01/25 02:06:26;;;;;;;39.72;7.57;;;;;;;7.76;92.64;102636.75;3610717;39;20054;-67
2024/01/25 02:08:58;;;;;;;38.03;7.07;;;;;;;7.73;92.41;102642.16;3608977;39;20412;-68
2024/01/25 02:11:25;;;;;;;38.40;7.45;;;;;;;7.47;91.73;102598.09;3610885;39;20051;-68
2024/01/25 02:13:51;;;;;;;39.10;7.90;;;;;;;7.64;92.75;102633.44;3613079;39;20480;-68
2024/01/25 02:16:20;;;;;;;40.45;7.35;;;;;;;7.59;92.36;102635.31;3609793;39;20059;-68
2024/01/25 02:18:47;;;;;;;39.38;7.75;;;;;;;7.39;92.44;102613.41;3608279;39;20061;-68
2024/01/25 02:21:13;;;;;;;53.00;8.35;;;;;;;7.58;92.42;102660.31;3610310;39;20088;-68
2024/01/25 02:23:39;;;;;;;35.33;6.90;;;;;;;7.56;92.47;102664.81;3610208;39;20070;-68
2024/01/25 02:26:04;;;;;;;44.67;7.88;;;;;;;7.52;92.28;102660.44;3609834;39;20364;-68
2024/01/25 02:28:30;;;;;;;37.17;7.20;;;;;;;7.46;92.24;102655.19;3608109;39;20050;-68
2024/01/25 02:30:56;;;;;;;53.60;9.20;;;;;;;7.16;93.01;102612.06;3608183;39;20323;-68
2024/01/25 02:33:21;;;;;;;37.03;7.00;;;;;;;7.43;93.60;102668.63;3608475;39;20180;-68
2024/01/25 02:35:47;;;;;;;41.13;7.80;;;;;;;7.39;92.96;102666.91;3609776;39;20358;-68
2024/01/25 02:38:12;;;;;;;41.35;8.07;;;;;;;7.37;93.30;102666.06;3609205;39;20059;-67
2024/01/25 02:40:38;;;;;;;40.90;7.70;;;;;;;7.31;92.87;102672.41;3610187;39;20050;-68
2024/01/25 02:43:04;;;;;;;32.80;7.22;;;;;;;7.27;93.38;102665.38;3607665;39;20059;-68
2024/01/25 02:45:29;;;;;;;40.42;7.90;;;;;;;7.24;93.38;102669.91;3609547;39;20166;-68
2024/01/25 02:47:55;;;;;;;38.13;7.25;;;;;;;7.19;93.17;102665.50;3606973;39;20050;-68
2024/01/25 02:50:20;;;;;;;43.17;7.38;;;;;;;7.15;93.15;102670.94;3607692;39;20375;-68
2024/01/25 02:52:46;;;;;;;35.30;7.00;;;;;;;7.13;93.36;102668.28;3609481;39;20085;-68
2024/01/25 02:55:12;;;;;;;43.63;8.07;;;;;;;7.11;93.77;102667.44;3607221;39;20059;-68
2024/01/25 02:57:38;;;;;;;33.38;6.45;;;;;;;7.08;93.52;102669.28;3607556;39;20387;-68
2024/01/25 03:00:04;;;;;;;38.13;7.13;;;;;;;7.02;93.23;102670.28;3608145;39;20054;-68
2024/01/25 03:02:30;;;;;;;38.17;6.78;;;;;;;6.98;93.67;102661.44;3607248;39;20051;-68
2024/01/25 03:04:55;;;;;;;37.58;7.55;;;;;;;6.95;93.79;102658.81;3607420;39;20276;-68
2024/01/25 03:07:21;;;;;;;37.13;6.28;;;;;;;6.94;93.80;102666.84;3608148;39;20058;-68
2024/01/25 03:09:46;;;;;;;41.13;6.93;;;;;;;6.58;94.13;102599.75;3608543;39;20066;-68
2024/01/25 03:12:12;;;;;;;39.88;7.63;;;;;;;6.89;94.45;102650.88;3608205;39;20047;-68
2024/01/25 03:14:37;;;;;;;39.55;6.45;;;;;;;6.89;94.23;102652.69;3615489;39;20403;-68
2024/01/25 03:17:03;;;;;;;43.17;7.30;;;;;;;6.88;93.94;102653.56;3608460;39;20051;-68
2024/01/25 03:19:29;;;;;;;39.05;7.03;;;;;;;6.88;94.25;102664.25;3614793;39;20280;-68
2024/01/25 03:21:55;;;;;;;43.17;7.30;;;;;;;6.83;94.07;102647.44;3608813;39;20070;-68
2024/01/25 03:24:24;;;;;;;41.05;7.25;;;;;;;6.86;94.15;102653.63;3605245;39;20312;-68
2024/01/25 03:26:50;;;;;;;40.28;6.32;;;;;;;6.79;93.88;102641.28;3609444;39;20388;-68
2024/01/25 03:29:15;;;;;;;36.60;6.63;;;;;;;6.82;92.98;102649.22;3608767;39;20124;-68
2024/01/25 03:31:41;;;;;;;30.08;6.78;;;;;;;6.55;93.23;102609.59;3607930;39;20051;-68
2024/01/25 03:34:07;;;;;;;40.05;7.20;;;;;;;6.76;92.94;102661.81;3609335;39;20083;-68
2024/01/25 03:36:33;;;;;;;37.60;6.97;;;;;;;6.72;92.49;102660.97;3608443;39;20058;-68
2024/01/25 03:38:59;;;;;;;35.10;6.25;;;;;;;6.69;93.15;102667.25;3607948;39;20480;-68
2024/01/25 03:41:24;;;;;;;34.72;6.60;;;;;;;6.67;93.43;102669.06;3610579;39;20047;-68
2024/01/25 03:43:51;;;;;;;32.40;5.97;;;;;;;6.65;93.32;102670.88;3610016;39;20074;-68
2024/01/25 03:46:17;;;;;;;45.88;7.43;;;;;;;6.63;93.21;102675.38;3607120;39;20047;-68
2024/01/25 03:48:43;;;;;;;35.70;6.60;;;;;;;6.61;93.76;102673.63;3607406;39;20047;-68
2024/01/25 03:51:08;;;;;;;43.33;6.88;;;;;;;6.58;93.23;102674.56;3606480;39;20395;-68
2024/01/25 03:53:34;;;;;;;31.35;6.55;;;;;;;6.52;93.46;102666.63;3610709;39;20055;-68
2024/01/25 03:56:00;;;;;;;37.58;6.55;;;;;;;6.50;93.36;102682.69;3605767;39;20062;-67
2024/01/25 03:58:25;;;;;;;29.63;6.30;;;;;;;6.50;93.18;102671.09;3607077;39;20071;-68
2024/01/25 04:00:51;;;;;;;38.15;6.43;;;;;;;6.41;93.09;102665.94;3608063;39;20348;-68
2024/01/25 04:03:16;;;;;;;35.42;6.05;;;;;;;6.29;92.94;102650.97;3607424;39;20058;-67
2024/01/25 04:05:42;;;;;;;32.25;6.03;;;;;;;6.34;92.55;102661.56;3607305;39;20330;-68
2024/01/25 04:08:08;;;;;;;29.52;6.15;;;;;;;6.30;92.80;102671.41;3607921;39;20051;-67
2024/01/25 04:10:34;;;;;;;34.22;7.05;;;;;;;6.26;93.10;102681.25;3606016;39;20103;-68
2024/01/25 04:13:00;;;;;;;34.90;6.30;;;;;;;6.21;92.58;102680.41;3608253;39;20050;-68
2024/01/25 04:15:26;;;;;;;33.72;5.85;;;;;;;5.97;92.86;102644.28;3616637;39;20375;-68
2024/01/25 04:17:53;;;;;;;35.83;6.88;;;;;;;5.96;93.27;102647.88;3608923;39;20115;-68
2024/01/25 04:20:19;;;;;;;33.75;6.65;;;;;;;6.09;93.54;102685.97;3607963;39;20071;-68
2024/01/25 04:22:45;;;;;;;33.15;6.18;;;;;;;6.00;94.59;102680.72;3609640;39;20181;-67
2024/01/25 04:25:11;;;;;;;35.70;6.68;;;;;;;6.09;94.57;102691.28;3607461;39;20091;-68
2024/01/25 04:27:40;;;;;;;37.38;7.50;;;;;;;6.05;94.05;102679.75;3606256;39;20076;-67
2024/01/25 04:30:07;;;;;;;34.50;6.18;;;;;;;5.89;94.38;102651.47;3610872;39;20066;-68
2024/01/25 04:32:33;;;;;;;33.95;6.57;;;;;;;6.00;93.94;102675.41;3609619;39;20055;-68
2024/01/25 04:34:59;;;;;;;38.65;6.38;;;;;;;6.00;94.70;102681.59;3607949;39;20054;-68
2024/01/25 04:37:24;;;;;;;32.33;6.13;;;;;;;5.98;94.52;102678.06;3608661;39;20058;-68
2024/01/25 04:39:50;;;;;;;39.55;6.32;;;;;;;5.96;94.54;102671.88;3608132;39;20315;-67
2024/01/25 04:42:16;;;;;;;35.75;6.30;;;;;;;5.92;93.95;102669.22;3606807;39;20182;-68
2024/01/25 04:44:41;;;;;;;37.38;5.53;;;;;;;5.86;93.84;102666.63;3606535;39;20052;-67
2024/01/25 04:47:07;;;;;;;32.60;7.15;;;;;;;5.82;93.57;102671.13;3608845;39;20058;-68
2024/01/25 04:49:32;;;;;;;35.97;6.97;;;;;;;5.79;94.10;102674.72;3609705;39;20339;-68
2024/01/25 04:51:58;;;;;;;34.03;5.90;;;;;;;5.58;95.04;102630.53;3606722;39;20048;-68
2024/01/25 04:54:24;;;;;;;45.05;7.75;;;;;;;5.79;95.47;102664.03;3609442;39;20359;-68
2024/01/25 04:56:49;;;;;;;35.38;6.68;;;;;;;5.79;95.57;102671.16;3615430;39;20044;-67
2024/01/25 04:59:15;;;;;;;39.80;7.03;;;;;;;5.80;96.32;102671.16;3608575;39;20050;-68
2024/01/25 05:01:40;;;;;;;47.63;7.05;;;;;;;5.85;96.67;102670.22;3607108;39;20059;-68
2024/01/25 05:04:06;;;;;;;33.72;6.82;;;;;;;5.84;96.88;102669.34;3606406;39;20055;-68
2024/01/25 05:06:32;;;;;;;37.63;7.57;;;;;;;5.88;96.89;102675.50;3606494;39;20065;-68
2024/01/25 05:08:57;;;;;;;31.13;7.25;;;;;;;5.86;96.22;102667.50;3613308;39;20328;-68
2024/01/25 05:11:23;;;;;;;37.03;7.45;;;;;;;5.85;96.05;102668.44;3606773;39;20058;-67
2024/01/25 05:13:48;;;;;;;32.33;6.72;;;;;;;5.70;95.34;102640.13;3608031;39;20412;-68
2024/01/25 05:16:14;;;;;;;34.80;6.40;;;;;;;5.75;95.01;102656.97;3608516;39;20058;-68
2024/01/25 05:18:40;;;;;;;34.47;6.85;;;;;;;5.74;94.67;102662.31;3605741;39;20588;-68
2024/01/25 05:21:06;;;;;;;26.10;5.63;;;;;;;5.66;94.49;102645.53;3614984;39;20059;-67
2024/01/25 05:23:31;;;;;;;36.72;7.07;;;;;;;5.65;94.49;102652.66;3608723;39;20161;-67
2024/01/25 05:25:57;;;;;;;35.22;7.82;;;;;;;5.41;94.46;102616.47;3606321;39;20047;-67
2024/01/25 05:28:24;;;;;;;33.95;7.50;;;;;;;5.54;94.80;102646.56;3604291;39;20051;-68
2024/01/25 05:30:50;;;;;;;39.92;7.88;;;;;;;5.60;95.55;102662.50;3608249;39;20054;-68
2024/01/25 05:33:16;;;;;;;33.75;8.98;;;;;;;5.49;96.91;102641.28;3607128;39;20183;-67
2024/01/25 05:35:41;;;;;;;45.50;9.57;;;;;;;5.64;96.21;102672.22;3607842;39;20346;-67
2024/01/25 05:38:07;;;;;;;36.10;8.20;;;;;;;5.43;95.83;102638.69;3610349;39;20616;-67
2024/01/25 05:40:32;;;;;;;30.73;6.60;;;;;;;5.59;96.03;102658.06;3612912;39;20078;-67
2024/01/25 05:42:59;;;;;;;34.67;7.30;;;;;;;5.61;96.14;102658.03;3604672;39;20403;-68
2024/01/25 05:45:24;;;;;;;32.67;7.07;;;;;;;5.59;95.94;102666.06;3607753;39;20394;-68
2024/01/25 05:47:50;;;;;;;36.10;7.00;;;;;;;5.53;96.15;102660.81;3609297;39;20050;-68
2024/01/25 05:50:16;;;;;;;38.33;7.22;;;;;;;5.56;96.40;102668.78;3608397;39;21302;-68
2024/01/25 05:52:42;;;;;;;36.35;6.43;;;;;;;5.54;96.27;102675.91;3608458;39;20083;-68
2024/01/25 05:55:08;;;;;;;44.63;7.68;;;;;;;5.54;96.74;102683.91;3610262;39;20070;-67
2024/01/25 05:57:37;;;;;;;39.83;8.38;;;;;;;5.56;97.65;102683.00;3607293;39;20063;-68
2024/01/25 06:00:05;;;;;;;39.42;8.10;;;;;;;5.57;97.09;102691.88;3608962;39;20136;-68
2024/01/25 06:02:31;;;;;;;40.50;7.35;;;;;;;5.37;97.42;102643.22;3608306;39;20059;-68
2024/01/25 06:04:58;;;;;;;34.28;6.60;;;;;;;5.58;97.44;102678.53;3607571;39;20395;-68
2024/01/25 06:07:24;;;;;;;40.60;8.00;;;;;;;5.39;97.48;102636.06;3606676;39;20075;-68
2024/01/25 06:09:50;;;;;;;32.10;7.00;;;;;;;5.58;97.10;102673.19;3608037;39;20357;-68
2024/01/25 06:12:15;;;;;;;42.00;7.38;;;;;;;5.58;97.37;102672.28;3608791;39;20054;-68
2024/01/25 06:14:41;;;;;;;33.22;7.60;;;;;;;5.58;97.26;102674.94;3609943;39;20061;-68
2024/01/25 06:17:07;;;;;;;28.73;6.85;;;;;;;5.48;96.95;102658.16;3607047;39;20058;-68
2024/01/25 06:19:34;;;;;;;36.83;7.97;;;;;;;5.57;96.01;102691.88;3608844;39;20438;-68
2024/01/25 06:22:00;;;;;;;36.30;7.80;;;;;;;5.54;96.57;102690.13;3606712;39;20043;-68
2024/01/25 06:24:25;;;;;;;41.90;8.32;;;;;;;5.51;96.59;102690.16;3607837;39;20055;-68
2024/01/25 06:26:53;;;;;;;43.13;8.40;;;;;;;5.34;95.89;102670.78;3609688;39;20123;-68
2024/01/25 06:29:19;;;;;;;38.83;9.00;;;;;;;5.45;96.29;102692.00;3607513;39;20419;-68
2024/01/25 06:31:45;;;;;;;36.10;7.53;;;;;;;5.43;96.27;102699.16;3611991;39;20147;-68
2024/01/25 06:34:11;;;;;;;34.25;7.90;;;;;;;5.37;96.85;102693.88;3607716;39;20055;-68
2024/01/25 06:36:37;;;;;;;32.53;7.40;;;;;;;5.38;96.54;102700.97;3614747;39;20312;-68
2024/01/25 06:39:06;;;;;;;34.17;7.25;;;;;;;5.38;96.65;102698.31;3607852;39;20409;-67
2024/01/25 06:41:32;;;;;;;38.22;8.10;;;;;;;5.39;97.28;102700.06;3608974;39;21135;-68
2024/01/25 06:43:59;;;;;;;36.63;8.27;;;;;;;5.34;97.14;102687.66;3606646;39;20377;-67
2024/01/25 06:46:24;;;;;;;34.45;8.20;;;;;;;5.36;97.31;102695.66;3606372;39;20061;-67
2024/01/25 06:48:51;;;;;;;42.17;8.13;;;;;;;5.32;97.17;102697.44;3607855;39;20055;-68
2024/01/25 06:51:17;;;;;;;34.95;7.95;;;;;;;5.32;97.78;102697.44;3609199;39;20066;-67
2024/01/25 06:53:43;;;;;;;37.75;8.13;;;;;;;5.31;97.06;102690.38;3608932;39;20066;-68
2024/01/25 06:56:09;;;;;;;34.08;7.32;;;;;;;5.19;96.22;102678.94;3606587;39;20074;-67
2024/01/25 06:58:34;;;;;;;32.08;6.82;;;;;;;5.20;95.52;102697.59;3608853;39;20040;-67
2024/01/25 07:01:00;;;;;;;37.90;7.28;;;;;;;5.16;96.19;102701.16;3607215;39;20066;-67
2024/01/25 07:03:26;;;;;;;34.20;7.85;;;;;;;5.13;96.10;102704.75;3610251;39;20043;-67
2024/01/25 07:05:52;;;;;;;35.08;7.28;;;;;;;5.07;95.91;102707.50;3606961;39;20058;-68
2024/01/25 07:08:21;;;;;;;34.28;7.75;;;;;;;5.06;96.28;102705.69;3609048;39;20075;-67
2024/01/25 07:10:47;;;;;;;32.38;8.00;;;;;;;5.02;95.81;102703.09;3608713;39;20047;-67
2024/01/25 07:13:12;;;;;;;35.53;8.38;;;;;;;4.96;95.57;102713.81;3606860;39;20406;-67
2024/01/25 07:15:38;;;;;;;31.67;7.45;;;;;;;4.93;95.38;102714.69;3608464;39;20093;-67
2024/01/25 07:18:04;;;;;;;41.15;8.20;;;;;;;4.86;95.26;102705.88;3608264;39;20063;-66
2024/01/25 07:20:30;;;;;;;22.55;7.30;;;;;;;4.83;95.27;102716.56;3607090;39;20070;-67
2024/01/25 07:22:56;;;;;;;34.55;7.47;;;;;;;4.83;95.66;102710.34;3608241;39;20055;-67
2024/01/25 07:25:22;;;;;;;38.38;8.50;;;;;;;4.81;96.05;102710.34;3606079;39;20062;-67
2024/01/25 07:27:49;;;;;;;39.58;8.57;;;;;;;4.81;95.79;102715.66;3607937;39;20049;-67
2024/01/25 07:30:15;;;;;;;34.65;9.48;;;;;;;4.81;96.16;102718.34;3607803;39;20124;-67
2024/01/25 07:32:42;;;;;;;35.88;8.55;;;;;;;4.86;97.00;102719.19;3608320;39;20403;-67
2024/01/25 07:35:11;;;;;;;36.05;8.07;;;;;;;4.94;97.85;102720.91;3609568;39;20058;-67
2024/01/25 07:37:39;;;;;;;32.35;7.63;;;;;;;4.96;97.50;102725.34;3607749;39;20328;-67
2024/01/25 07:40:06;;;;;;;34.90;7.60;;;;;;;5.02;97.66;102725.28;3607451;39;20079;-67
2024/01/25 07:42:32;;;;;;;50.40;16.20;;;;;;;5.07;98.22;102718.16;3614427;39;20070;-67
2024/01/25 07:44:58;;;;;;;66.10;21.15;;;;;;;5.17;98.96;102712.72;3606547;39;20074;-67
2024/01/25 07:47:23;;;;;;;51.38;20.63;;;;;;;5.23;98.74;102718.00;3607148;39;20051;-67
2024/01/25 07:49:49;;;;;;;38.45;9.45;;;;;;;5.28;99.19;102722.38;3608442;39;20299;-67
2024/01/25 07:52:15;;;;;;;39.78;9.20;;;;;;;5.36;99.08;102711.66;3606209;39;20063;-67
2024/01/25 07:54:41;;;;;;;43.35;9.27;;;;;;;5.41;99.15;102706.28;3606965;39;20123;-67
2024/01/25 07:57:06;;;;;;;39.60;9.15;;;;;;;5.51;100.00;102707.94;3607466;39;20082;-67
2024/01/25 07:59:32;;;;;;;40.38;8.80;;;;;;;5.58;99.59;102710.53;3608700;39;20054;-68
2024/01/25 08:01:57;;;;;;;37.05;9.23;;;;;;;5.58;99.52;102698.97;3607602;39;20070;-67
2024/01/25 08:04:23;;;;;;;39.67;10.27;;;;;;;5.70;99.02;102720.19;3610372;39;20331;-67
2024/01/25 08:06:49;;;;;;;50.33;9.98;;;;;;;5.73;98.67;102720.16;3606249;39;20059;-67
2024/01/25 08:09:14;;;;;;;40.35;10.45;;;;;;;5.77;98.38;102727.25;3606530;39;20069;-67
2024/01/25 08:11:41;;;;;;;36.80;9.75;;;;;;;5.82;98.85;102725.38;3606164;39;20058;-67
2024/01/25 08:14:07;;;;;;;40.72;11.25;;;;;;;5.86;98.42;102726.22;3610688;39;20085;-68
2024/01/25 08:16:34;;;;;;;37.00;10.20;;;;;;;5.89;98.40;102719.97;3608178;39;20411;-67
2024/01/25 08:19:00;;;;;;;40.45;11.10;;;;;;;5.93;98.03;102727.06;3606785;39;20046;-67
2024/01/25 08:21:26;;;;;;;43.75;11.82;;;;;;;5.94;98.03;102736.88;3615148;39;20071;-67
2024/01/25 08:23:51;;;;;;;40.95;11.40;;;;;;;5.97;97.74;102739.50;3606249;39;20062;-67
2024/01/25 08:26:17;;;;;;;39.83;11.13;;;;;;;6.02;98.13;102726.97;3607044;39;20070;-67
2024/01/25 08:28:44;;;;;;;42.00;10.85;;;;;;;6.05;98.01;102710.91;3607011;39;20103;-68
2024/01/25 08:31:10;;;;;;;40.10;9.95;;;;;;;6.09;97.87;102701.97;3608552;39;20051;-67
2024/01/25 08:33:36;;;;;;;39.05;9.98;;;;;;;6.15;98.17;102693.88;3608133;39;20098;-66
2024/01/25 08:36:02;;;;;;;30.60;10.02;;;;;;;6.18;98.28;102704.50;3605862;39;20058;-66
2024/01/25 08:38:27;;;;;;;37.75;10.07;;;;;;;6.22;98.25;102705.38;3613717;39;20038;-67
2024/01/25 08:40:53;;;;;;;34.40;11.35;;;;;;;6.20;97.83;102693.81;3609871;39;20065;-67
2024/01/25 08:43:19;;;;;;;44.15;12.82;;;;;;;6.27;97.79;102712.38;3609194;39;20121;-67
2024/01/25 08:45:44;;;;;;;36.25;12.40;;;;;;;6.33;98.53;102721.22;3610005;39;20305;-67
2024/01/25 08:48:10;;;;;;;38.58;12.27;;;;;;;6.27;97.86;102725.75;3608560;39;20055;-67
2024/01/25 08:50:36;;;;;;;39.38;12.90;;;;;;;6.34;97.94;102747.03;3609519;39;20288;-67
2024/01/25 08:53:02;;;;;;;38.50;13.00;;;;;;;6.33;98.12;102731.91;3607377;39;20067;-67
2024/01/25 08:55:28;;;;;;;31.02;11.07;;;;;;;6.39;97.75;102740.72;3605823;39;20055;-67
2024/01/25 08:57:53;;;;;;;35.10;13.23;;;;;;;6.42;98.21;102732.66;3607354;39;20082;-67
2024/01/25 09:00:19;;;;;;;40.17;12.48;;;;;;;6.50;98.56;102721.84;3606485;39;20063;-67
2024/01/25 09:02:45;;;;;;;31.35;12.77;;;;;;;6.56;98.12;102729.78;3608666;39;20066;-67
2024/01/25 09:05:11;;;;;;;38.65;13.45;;;;;;;6.59;97.98;102732.41;3608424;39;20384;-67
2024/01/25 09:07:38;;;;;;;36.20;13.32;;;;;;;6.62;98.06;102735.03;3608946;39;20073;-68
2024/01/25 09:10:04;;;;;;;36.13;13.90;;;;;;;6.67;97.79;102733.19;3608260;39;20047;-67
2024/01/25 09:12:30;;;;;;;32.08;13.80;;;;;;;6.63;97.14;102723.47;3609936;39;20069;-67
2024/01/25 09:14:56;;;;;;;32.08;12.77;;;;;;;6.71;97.73;102740.25;3608746;39;20059;-67
2024/01/25 09:17:21;;;;;;;33.30;14.60;;;;;;;6.64;97.73;102727.03;3609506;39;20363;-67
2024/01/25 09:19:51;;;;;;;36.22;14.98;;;;;;;6.76;97.29;102742.00;3610199;39;20059;-67
2024/01/25 09:22:19;;;;;;;35.58;14.68;;;;;;;6.80;97.91;102746.38;3609648;39;20063;-67
2024/01/25 09:24:47;;;;;;;38.88;15.55;;;;;;;6.87;97.71;102746.25;3608752;39;20370;-67
2024/01/25 09:27:14;;;;;;;37.53;16.23;;;;;;;6.77;97.48;102701.00;3610361;39;20124;-67
2024/01/25 09:29:41;;;;;;;35.72;14.38;;;;;;;7.01;97.23;102731.78;3609973;39;20051;-67
2024/01/25 09:32:08;;;;;;;35.88;15.95;;;;;;;6.75;96.92;102692.97;3608084;39;20087;-67
2024/01/25 09:34:36;;;;;;;30.92;14.23;;;;;;;7.04;97.37;102738.00;3609291;39;20058;-67
2024/01/25 09:37:02;;;;;;;29.10;13.15;;;;;;;7.07;96.44;102737.94;3610493;39;20047;-66
2024/01/25 09:39:28;;;;;;;29.98;13.13;;;;;;;7.11;97.42;102733.41;3608976;39;20097;-67
2024/01/25 09:41:54;;;;;;;24.10;12.90;;;;;;;7.19;96.93;102729.69;3608961;39;20128;-67
2024/01/25 09:44:20;;;;;;;31.13;13.82;;;;;;;7.27;97.19;102728.69;3609514;39;20062;-67
2024/01/25 09:46:46;;;;;;;25.45;13.32;;;;;;;7.26;96.51;102727.78;3607825;39;20078;-67
2024/01/25 09:49:12;;;;;;;28.30;13.38;;;;;;;7.31;96.12;102746.44;3607715;39;20046;-67
2024/01/25 09:51:41;;;;;;;29.80;14.73;;;;;;;7.31;96.27;102754.47;3608547;39;20047;-67
2024/01/25 09:54:07;;;;;;;34.10;14.50;;;;;;;7.37;96.96;102741.00;3610272;39;20091;-67
2024/01/25 09:56:35;;;;;;;27.20;14.38;;;;;;;7.48;96.56;102741.66;3609222;39;20051;-67
2024/01/25 09:59:03;;;;;;;32.90;15.55;;;;;;;7.56;96.84;102738.88;3610362;39;20081;-68
2024/01/25 10:01:29;;;;;;;30.40;14.43;;;;;;;7.65;96.52;102727.97;3609755;39;20042;-67
2024/01/25 10:03:57;;;;;;;38.53;15.20;;;;;;;7.74;97.04;102729.56;3610680;39;20059;-68
2024/01/25 10:06:24;;;;;;;33.55;15.55;;;;;;;7.83;97.10;102727.63;3609706;39;20592;-68
2024/01/25 10:08:49;;;;;;;37.38;15.30;;;;;;;7.75;97.01;102692.09;3608625;39;20365;-67
2024/01/25 10:11:16;;;;;;;38.72;16.33;;;;;;;7.94;95.96;102705.97;3609052;39;20043;-67
2024/01/25 10:13:47;;;;;;;47.97;15.18;;;;;;;8.08;95.33;102716.41;3609524;39;20047;-67
2024/01/25 10:16:19;;;;;;;43.53;16.48;;;;;;;8.17;95.91;102712.66;3608102;39;20067;-67
2024/01/25 10:18:47;;;;;;;35.88;13.88;;;;;;;7.98;95.63;102667.50;3608296;39;20092;-67
2024/01/25 10:21:15;;;;;;;41.65;14.98;;;;;;;8.33;94.51;102714.06;3606555;39;20113;-67
2024/01/25 10:23:48;;;;;;;43.08;14.95;;;;;;;8.37;94.11;102707.72;3609066;39;20123;-67
2024/01/25 10:26:14;;;;;;;41.63;14.98;;;;;;;8.39;94.00;102724.69;3609332;39;20086;-67
2024/01/25 10:28:40;;;;;;;40.60;15.75;;;;;;;8.29;94.10;102696.31;3609524;39;20118;-67
2024/01/25 10:31:07;;;;;;;41.50;15.50;;;;;;;8.37;94.50;102697.00;3610688;39;20055;-67
2024/01/25 10:33:34;;;;;;;43.80;15.50;;;;;;;8.54;94.51;102702.91;3607517;39;20057;-67
2024/01/25 10:36:04;;;;;;;40.30;15.43;;;;;;;8.53;94.45;102682.41;3608625;39;20051;-67
2024/01/25 10:38:38;;;;;;;49.17;14.55;;;;;;;8.49;93.77;102659.25;3611278;39;20063;-67
2024/01/25 10:41:06;;;;;;;35.38;14.35;;;;;;;8.75;93.42;102687.22;3607127;39;20074;-67
2024/01/25 10:43:32;;;;;;;37.80;13.18;;;;;;;8.82;92.17;102681.69;3608994;39;20436;-67
2024/01/25 10:45:59;;;;;;;30.35;12.65;;;;;;;8.91;92.69;102675.22;3607495;39;20086;-67
2024/01/25 10:48:26;;;;;;;36.35;12.73;;;;;;;8.72;92.08;102649.75;3607489;39;20058;-67
2024/01/25 10:50:54;;;;;;;37.55;13.55;;;;;;;8.95;92.06;102668.84;3608306;39;20408;-67
2024/01/25 10:53:22;;;;;;;39.95;12.75;;;;;;;9.00;91.62;102664.22;3607353;39;20416;-67
2024/01/25 10:55:48;;;;;;;46.20;13.30;;;;;;;8.99;91.26;102675.88;3607776;39;20055;-67
2024/01/25 10:58:15;;;;;;;38.35;13.27;;;;;;;9.02;91.48;102682.97;3616977;39;20078;-67
2024/01/25 11:00:40;;;;;;;33.92;12.57;;;;;;;8.96;90.66;102657.19;3610914;39;20073;-67
2024/01/25 11:03:06;;;;;;;36.15;12.05;;;;;;;9.09;90.13;102672.97;3608280;39;20040;-68
2024/01/25 11:05:32;;;;;;;32.97;12.57;;;;;;;8.90;90.59;102625.16;3612259;39;21027;-67
2024/01/25 11:07:58;;;;;;;33.78;11.77;;;;;;;9.23;91.37;102665.47;3611150;39;20062;-68
2024/01/25 11:10:26;;;;;;;40.60;13.10;;;;;;;9.22;90.33;102642.22;3608942;39;20055;-66
2024/01/25 11:13:03;;;;;;;41.80;12.88;;;;;;;9.30;89.14;102648.25;3608102;39;20701;-68
2024/01/25 11:15:35;;;;;;;37.88;12.88;;;;;;;9.27;88.54;102643.84;3607258;39;20068;-68
2024/01/25 11:18:06;;;;;;;38.00;13.00;;;;;;;9.24;88.88;102643.06;3607781;39;20128;-67